Time;durP1;ratioP1;P1;durP2;ratioP2;P2;SDS_P1;SDS_P2;PMS_P1;PMS_P2;Temp;Humidity;BMP_temperature;BMP_pressure;BME280_temperature;BME280_humidity;BME280_pressure;Samples;Min_cycle;Max_cycle;Signal;HPM_P1;HPM_P2
2023/08/05 00:01:09;;;;;;;2.10;2.00;;;;;;;;;;5086453;28;20206;-60
2023/08/05 00:03:36;;;;;;;3.83;2.13;;;;;;;;;;5087313;28;20221;-60
2023/08/05 00:06:03;;;;;;;1.80;1.80;;;;;;;;;;5084125;28;20212;-59
2023/08/05 00:08:30;;;;;;;5.25;1.98;;;;;;;;;;5087613;28;20206;-59
2023/08/05 00:10:57;;;;;;;3.35;2.13;;;;;;;;;;5090211;28;20210;-60
2023/08/05 00:13:24;;;;;;;2.00;1.90;;;;;;;;;;5091543;28;20229;-60
2023/08/05 00:15:53;;;;;;;2.50;1.83;;;;;;;;;;5089959;28;20213;-60
2023/08/05 00:18:20;;;;;;;3.55;1.95;;;;;;;;;;5091142;28;20203;-60
2023/08/05 00:20:49;;;;;;;2.50;1.75;;;;;;;;;;5090147;28;20224;-60
2023/08/05 00:23:16;;;;;;;2.22;2.00;;;;;;;;;;5091061;28;20199;-60
2023/08/05 00:25:44;;;;;;;5.03;1.83;;;;;;;;;;5089133;28;20217;-60
2023/08/05 00:28:11;;;;;;;3.03;2.13;;;;;;;;;;5086578;28;20214;-60
2023/08/05 00:30:38;;;;;;;4.20;1.88;;;;;;;;;;5068120;28;20202;-60
2023/08/05 00:33:06;;;;;;;2.80;2.47;;;;;;;;;;5084646;28;20339;-59
2023/08/05 00:35:33;;;;;;;2.50;2.40;;;;;;;;;;5086768;28;20225;-60
2023/08/05 00:38:00;;;;;;;3.03;2.40;;;;;;;;;;5086504;28;20225;-60
2023/08/05 00:40:27;;;;;;;3.15;2.80;;;;;;;;;;5090363;28;20704;-60
2023/08/05 00:42:54;;;;;;;4.00;3.40;;;;;;;;;;5087236;28;20676;-60
2023/08/05 00:45:21;;;;;;;5.07;3.10;;;;;;;;;;5086992;28;20657;-60
2023/08/05 00:47:48;;;;;;;5.18;3.10;;;;;;;;;;5086672;28;20202;-60
2023/08/05 00:50:17;;;;;;;3.72;3.22;;;;;;;;;;5088071;28;20198;-60
2023/08/05 00:52:44;;;;;;;2.97;2.72;;;;;;;;;;5089250;28;20210;-60
2023/08/05 00:55:11;;;;;;;2.85;2.65;;;;;;;;;;5068716;28;20234;-60
2023/08/05 00:57:38;;;;;;;2.65;2.47;;;;;;;;;;5087322;28;20221;-60
2023/08/05 01:00:06;;;;;;;2.47;2.30;;;;;;;;;;5080574;28;20214;-60
2023/08/05 01:02:34;;;;;;;2.38;2.17;;;;;;;;;;5084963;28;20233;-60
2023/08/05 01:05:01;;;;;;;3.00;2.70;;;;;;;;;;5067707;28;20680;-60
2023/08/05 01:07:29;;;;;;;2.33;2.05;;;;;;;;;;5086003;28;20258;-60
2023/08/05 01:09:56;;;;;;;1.98;1.88;;;;;;;;;;5087776;28;20206;-60
2023/08/05 01:12:23;;;;;;;2.33;2.13;;;;;;;;;;5085827;28;20213;-60
2023/08/05 01:14:50;;;;;;;3.17;2.30;;;;;;;;;;5088906;28;20226;-61
2023/08/05 01:17:17;;;;;;;2.30;2.10;;;;;;;;;;5089827;28;20206;-60
2023/08/05 01:19:45;;;;;;;2.03;1.92;;;;;;;;;;5072608;28;20231;-60
2023/08/05 01:22:16;;;;;;;1.58;1.48;;;;;;;;;;5088449;28;20202;-60
2023/08/05 01:24:49;;;;;;;2.15;2.05;;;;;;;;;;5081322;28;20265;-60
2023/08/05 01:27:18;;;;;;;2.78;1.63;;;;;;;;;;5089041;28;20216;-60
2023/08/05 01:29:45;;;;;;;3.10;2.13;;;;;;;;;;5079484;28;20202;-60
2023/08/05 01:32:13;;;;;;;2.60;1.70;;;;;;;;;;5089165;28;20233;-60
2023/08/05 01:34:41;;;;;;;1.85;1.75;;;;;;;;;;5088274;28;20275;-60
2023/08/05 01:37:08;;;;;;;1.63;1.52;;;;;;;;;;5089863;28;20203;-60
2023/08/05 01:39:35;;;;;;;1.50;1.50;;;;;;;;;;5089098;28;20306;-60
2023/08/05 01:42:02;;;;;;;1.80;1.70;;;;;;;;;;5085563;28;20334;-60
2023/08/05 01:44:30;;;;;;;3.42;1.52;;;;;;;;;;5089306;28;20218;-60
2023/08/05 01:46:57;;;;;;;1.63;1.63;;;;;;;;;;5088477;28;20206;-60
2023/08/05 01:49:24;;;;;;;1.75;1.75;;;;;;;;;;5076259;28;20210;-60
2023/08/05 01:51:51;;;;;;;2.00;1.88;;;;;;;;;;5079525;28;20210;-61
2023/08/05 01:54:18;;;;;;;2.58;1.70;;;;;;;;;;5089221;28;20595;-60
2023/08/05 01:56:45;;;;;;;1.45;1.33;;;;;;;;;;5085081;28;20214;-60
2023/08/05 01:59:12;;;;;;;1.70;1.70;;;;;;;;;;5084310;28;20206;-60
2023/08/05 02:01:44;;;;;;;1.73;1.60;;;;;;;;;;5087031;28;20574;-60
2023/08/05 02:04:12;;;;;;;1.63;1.63;;;;;;;;;;5086351;28;20208;-60
2023/08/05 02:06:39;;;;;;;1.73;1.63;;;;;;;;;;5088889;28;20202;-60
2023/08/05 02:09:06;;;;;;;1.75;1.52;;;;;;;;;;5083872;28;20209;-60
2023/08/05 02:11:33;;;;;;;1.75;1.67;;;;;;;;;;5088911;28;20230;-60
2023/08/05 02:14:00;;;;;;;4.10;2.05;;;;;;;;;;5078558;28;20219;-60
2023/08/05 02:16:28;;;;;;;1.83;1.48;;;;;;;;;;5078985;28;20225;-60
2023/08/05 02:18:56;;;;;;;1.67;1.58;;;;;;;;;;5088083;28;20668;-60
2023/08/05 02:21:24;;;;;;;1.92;1.70;;;;;;;;;;5082318;28;20584;-59
2023/08/05 02:23:51;;;;;;;1.70;1.65;;;;;;;;;;5088404;28;20206;-60
2023/08/05 02:26:18;;;;;;;1.92;1.73;;;;;;;;;;5089416;28;20661;-60
2023/08/05 02:28:46;;;;;;;1.95;1.85;;;;;;;;;;5079315;28;20202;-60
2023/08/05 02:31:13;;;;;;;1.52;1.42;;;;;;;;;;5086280;28;20241;-60
2023/08/05 02:33:40;;;;;;;2.35;1.77;;;;;;;;;;5088977;28;20221;-60
2023/08/05 02:36:09;;;;;;;2.00;1.90;;;;;;;;;;5088155;28;20213;-60
2023/08/05 02:38:36;;;;;;;1.85;1.50;;;;;;;;;;5088834;28;20233;-60
2023/08/05 02:41:06;;;;;;;1.60;1.60;;;;;;;;;;5088858;28;20649;-60
2023/08/05 02:43:33;;;;;;;3.33;1.50;;;;;;;;;;5087577;28;20226;-59
2023/08/05 02:46:00;;;;;;;1.70;1.60;;;;;;;;;;5088871;28;20206;-59
2023/08/05 02:48:27;;;;;;;6.30;1.90;;;;;;;;;;5088566;28;20764;-60
2023/08/05 02:50:55;;;;;;;3.97;1.27;;;;;;;;;;5087656;28;20691;-59
2023/08/05 02:53:24;;;;;;;1.83;1.60;;;;;;;;;;5088561;28;20233;-59
2023/08/05 02:55:51;;;;;;;1.42;1.42;;;;;;;;;;5084772;28;20221;-60
2023/08/05 02:58:19;;;;;;;1.30;1.20;;;;;;;;;;5088585;28;20206;-60
2023/08/05 03:00:46;;;;;;;1.50;1.40;;;;;;;;;;5087406;28;20213;-60
2023/08/05 03:03:14;;;;;;;1.48;1.40;;;;;;;;;;5087902;28;20229;-60
2023/08/05 03:05:41;;;;;;;1.88;1.65;;;;;;;;;;5087294;28;20195;-60
2023/08/05 03:08:10;;;;;;;4.15;1.67;;;;;;;;;;5087466;28;20810;-60
2023/08/05 03:10:38;;;;;;;1.83;1.38;;;;;;;;;;5087324;28;20206;-60
2023/08/05 03:13:05;;;;;;;1.63;1.52;;;;;;;;;;5084015;28;20206;-60
2023/08/05 03:15:33;;;;;;;1.58;1.48;;;;;;;;;;5087596;28;20232;-60
2023/08/05 03:18:00;;;;;;;1.58;1.48;;;;;;;;;;5087431;28;20311;-59
2023/08/05 03:20:27;;;;;;;1.30;1.30;;;;;;;;;;5087317;28;20206;-60
2023/08/05 03:22:54;;;;;;;1.83;1.60;;;;;;;;;;5086425;28;20579;-59
2023/08/05 03:25:21;;;;;;;1.27;1.23;;;;;;;;;;5088182;28;20202;-59
2023/08/05 03:27:50;;;;;;;1.55;1.45;;;;;;;;;;5087317;28;20203;-60
2023/08/05 03:30:18;;;;;;;2.05;1.40;;;;;;;;;;5084042;28;20202;-60
2023/08/05 03:32:45;;;;;;;2.28;1.63;;;;;;;;;;5087002;28;20262;-60
2023/08/05 03:35:12;;;;;;;1.67;1.58;;;;;;;;;;5088005;28;20218;-60
2023/08/05 03:37:39;;;;;;;2.05;1.45;;;;;;;;;;5087607;28;20210;-60
2023/08/05 03:40:07;;;;;;;1.75;1.60;;;;;;;;;;5085728;28;20229;-59
2023/08/05 03:42:34;;;;;;;1.50;1.50;;;;;;;;;;5087661;28;20689;-60
2023/08/05 03:45:03;;;;;;;1.90;1.70;;;;;;;;;;5090024;28;20206;-60
2023/08/05 03:47:30;;;;;;;1.65;1.65;;;;;;;;;;5091579;28;20292;-60
2023/08/05 03:49:57;;;;;;;3.55;1.50;;;;;;;;;;5091099;28;20202;-59
2023/08/05 03:52:26;;;;;;;1.85;1.77;;;;;;;;;;5092101;28;20210;-60
2023/08/05 03:54:53;;;;;;;3.33;1.73;;;;;;;;;;5091233;28;20241;-60
2023/08/05 03:57:20;;;;;;;2.78;2.00;;;;;;;;;;5091954;28;20202;-59
2023/08/05 03:59:48;;;;;;;1.88;1.63;;;;;;;;;;5090920;28;20210;-60
2023/08/05 04:02:16;;;;;;;2.33;1.90;;;;;;;;;;5091430;28;20202;-59
2023/08/05 04:04:43;;;;;;;3.03;1.60;;;;;;;;;;5091568;28;20205;-60
2023/08/05 04:07:10;;;;;;;2.80;1.58;;;;;;;;;;5091031;28;20249;-60
2023/08/05 04:09:38;;;;;;;5.82;1.75;;;;;;;;;;5091674;28;20677;-60
2023/08/05 04:12:08;;;;;;;1.85;1.30;;;;;;;;;;5090377;28;20214;-60
2023/08/05 04:14:37;;;;;;;7.22;2.10;;;;;;;;;;5091452;28;20222;-59
2023/08/05 04:17:04;;;;;;;2.42;1.70;;;;;;;;;;5090220;28;20280;-60
2023/08/05 04:19:33;;;;;;;1.67;1.45;;;;;;;;;;5091605;28;20209;-59
2023/08/05 04:22:01;;;;;;;3.00;1.67;;;;;;;;;;5090514;28;20679;-62
2023/08/05 04:24:29;;;;;;;1.95;1.85;;;;;;;;;;5091667;28;20202;-60
2023/08/05 04:26:57;;;;;;;2.00;1.92;;;;;;;;;;5090152;28;20310;-59
2023/08/05 04:29:24;;;;;;;1.60;1.60;;;;;;;;;;5086367;28;20206;-64
2023/08/05 04:31:51;;;;;;;2.00;1.80;;;;;;;;;;5091047;28;20759;-60
2023/08/05 04:34:19;;;;;;;2.03;1.60;;;;;;;;;;5089070;28;20309;-60
2023/08/05 04:36:49;;;;;;;3.33;1.95;;;;;;;;;;5085057;28;20233;-61
2023/08/05 04:39:17;;;;;;;2.38;1.60;;;;;;;;;;5088906;28;20214;-58
2023/08/05 04:41:45;;;;;;;3.08;1.80;;;;;;;;;;5076094;28;20198;-60
2023/08/05 04:44:12;;;;;;;1.98;1.88;;;;;;;;;;5090611;28;20279;-60
2023/08/05 04:46:39;;;;;;;1.77;1.77;;;;;;;;;;5091451;28;20218;-60
2023/08/05 04:49:08;;;;;;;1.67;1.60;;;;;;;;;;5090208;28;20214;-60
2023/08/05 04:51:35;;;;;;;6.90;2.08;;;;;;;;;;5090855;28;20221;-60
2023/08/05 04:54:04;;;;;;;1.80;1.80;;;;;;;;;;5090215;28;20218;-60
2023/08/05 04:56:33;;;;;;;1.38;1.38;;;;;;;;;;5090647;28;20311;-60
2023/08/05 04:59:00;;;;;;;1.65;1.60;;;;;;;;;;5090454;28;20680;-60
2023/08/05 05:01:27;;;;;;;1.80;1.70;;;;;;;;;;5089535;28;20556;-61
2023/08/05 05:03:54;;;;;;;4.80;1.52;;;;;;;;;;5090702;28;20206;-60
2023/08/05 05:06:21;;;;;;;4.32;1.80;;;;;;;;;;5089889;28;20195;-60
2023/08/05 05:08:48;;;;;;;2.00;1.90;;;;;;;;;;5090627;28;20203;-60
2023/08/05 05:11:17;;;;;;;1.65;1.55;;;;;;;;;;5089299;28;20210;-60
2023/08/05 05:13:46;;;;;;;1.80;1.80;;;;;;;;;;5090021;28;20221;-60
2023/08/05 05:16:13;;;;;;;3.72;2.10;;;;;;;;;;5089257;28;20234;-60
2023/08/05 05:18:40;;;;;;;1.83;1.80;;;;;;;;;;5090472;28;20206;-60
2023/08/05 05:21:07;;;;;;;1.67;1.67;;;;;;;;;;5088642;28;20209;-60
2023/08/05 05:23:34;;;;;;;4.78;2.13;;;;;;;;;;5088720;28;20211;-60
2023/08/05 05:26:01;;;;;;;1.75;1.75;;;;;;;;;;5089289;28;20210;-60
2023/08/05 05:28:30;;;;;;;2.03;1.98;;;;;;;;;;5088487;28;20222;-60
2023/08/05 05:30:58;;;;;;;1.85;1.85;;;;;;;;;;5082252;28;20269;-60
2023/08/05 05:33:25;;;;;;;3.05;2.17;;;;;;;;;;5088323;28;20669;-60
2023/08/05 05:35:52;;;;;;;2.38;2.17;;;;;;;;;;5089690;28;20254;-60
2023/08/05 05:38:19;;;;;;;4.22;2.40;;;;;;;;;;5089312;28;20207;-60
2023/08/05 05:40:46;;;;;;;2.47;2.15;;;;;;;;;;5089525;28;20207;-60
2023/08/05 05:43:13;;;;;;;3.88;1.92;;;;;;;;;;5089261;28;20232;-60
2023/08/05 05:45:42;;;;;;;1.85;1.75;;;;;;;;;;5084255;28;20683;-60
2023/08/05 05:48:09;;;;;;;2.67;2.17;;;;;;;;;;5089929;28;20292;-60
2023/08/05 05:50:40;;;;;;;2.50;2.25;;;;;;;;;;5088820;28;20211;-60
2023/08/05 05:53:08;;;;;;;2.47;2.33;;;;;;;;;;5082343;28;20291;-60
2023/08/05 05:55:35;;;;;;;3.70;2.55;;;;;;;;;;5088182;28;20233;-60
2023/08/05 05:58:02;;;;;;;2.78;2.58;;;;;;;;;;5089462;28;20289;-61
2023/08/05 06:00:30;;;;;;;2.40;2.20;;;;;;;;;;5088548;28;20660;-61
2023/08/05 06:02:58;;;;;;;2.25;2.22;;;;;;;;;;5088632;28;20624;-61
2023/08/05 06:05:26;;;;;;;2.17;1.88;;;;;;;;;;5088871;28;20288;-59
2023/08/05 06:07:53;;;;;;;2.95;2.63;;;;;;;;;;5088342;28;20202;-59
2023/08/05 06:10:20;;;;;;;2.20;2.10;;;;;;;;;;5089193;28;20228;-60
2023/08/05 06:12:47;;;;;;;3.40;2.60;;;;;;;;;;5081194;28;20214;-59
2023/08/05 06:15:14;;;;;;;3.20;2.38;;;;;;;;;;5088853;28;20217;-59
2023/08/05 06:17:41;;;;;;;3.80;2.40;;;;;;;;;;5088380;28;20206;-59
2023/08/05 06:20:10;;;;;;;2.85;2.25;;;;;;;;;;5088647;28;20203;-59
2023/08/05 06:22:37;;;;;;;2.50;2.30;;;;;;;;;;5085214;28;20222;-59
2023/08/05 06:25:05;;;;;;;2.40;2.20;;;;;;;;;;5089099;28;20208;-59
2023/08/05 06:27:32;;;;;;;2.65;2.50;;;;;;;;;;5089125;28;20198;-58
2023/08/05 06:29:59;;;;;;;2.58;2.47;;;;;;;;;;5087811;28;20293;-60
2023/08/05 06:32:26;;;;;;;3.72;2.30;;;;;;;;;;5088809;28;20241;-59
2023/08/05 06:34:53;;;;;;;2.35;2.25;;;;;;;;;;5087923;28;20332;-60
2023/08/05 06:37:22;;;;;;;2.53;2.42;;;;;;;;;;5083177;28;20861;-61
2023/08/05 06:39:49;;;;;;;5.45;2.95;;;;;;;;;;5085682;28;20232;-61
2023/08/05 06:42:16;;;;;;;2.53;2.40;;;;;;;;;;5088122;28;20202;-61
2023/08/05 06:44:44;;;;;;;2.22;2.10;;;;;;;;;;5088656;28;20304;-60
2023/08/05 06:47:11;;;;;;;2.90;2.70;;;;;;;;;;5088771;28;20207;-60
2023/08/05 06:49:38;;;;;;;2.67;2.47;;;;;;;;;;5083700;28;20206;-61
2023/08/05 06:52:06;;;;;;;4.05;2.78;;;;;;;;;;5083989;28;20217;-60
2023/08/05 06:54:34;;;;;;;2.70;2.50;;;;;;;;;;5088734;28;20213;-60
2023/08/05 06:57:01;;;;;;;3.15;2.20;;;;;;;;;;5088558;28;20233;-60
2023/08/05 06:59:28;;;;;;;2.08;1.98;;;;;;;;;;5087355;28;20213;-60
2023/08/05 07:01:55;;;;;;;3.22;2.13;;;;;;;;;;5084107;28;20202;-60
2023/08/05 07:04:22;;;;;;;5.15;2.28;;;;;;;;;;5088070;28;20206;-60
2023/08/05 07:06:49;;;;;;;3.78;1.95;;;;;;;;;;5078007;28;20228;-60
2023/08/05 07:09:16;;;;;;;2.15;2.05;;;;;;;;;;5087498;28;20207;-60
2023/08/05 07:11:45;;;;;;;2.10;1.92;;;;;;;;;;5077928;28;20222;-60
2023/08/05 07:14:12;;;;;;;4.07;2.17;;;;;;;;;;5087225;28;20202;-60
2023/08/05 07:16:39;;;;;;;2.13;1.83;;;;;;;;;;5087536;28;20218;-61
2023/08/05 07:19:06;;;;;;;1.90;1.80;;;;;;;;;;5083208;28;20196;-66
2023/08/05 07:21:33;;;;;;;2.97;1.75;;;;;;;;;;5082866;28;20215;-60
2023/08/05 07:24:00;;;;;;;2.03;1.80;;;;;;;;;;5086957;28;20203;-64
2023/08/05 07:26:27;;;;;;;2.10;1.90;;;;;;;;;;5087228;28;20202;-64
2023/08/05 07:28:56;;;;;;;2.80;1.63;;;;;;;;;;5087345;28;20203;-64
2023/08/05 07:31:23;;;;;;;3.03;1.60;;;;;;;;;;5087794;28;20245;-63
2023/08/05 07:33:51;;;;;;;1.65;1.65;;;;;;;;;;5086251;28;20229;-63
2023/08/05 07:36:22;;;;;;;2.00;1.30;;;;;;;;;;5079726;28;20684;-63
2023/08/05 07:38:51;;;;;;;2.67;1.40;;;;;;;;;;5086585;28;20214;-63
2023/08/05 07:41:20;;;;;;;1.30;1.20;;;;;;;;;;5085515;28;20210;-64
2023/08/05 07:43:47;;;;;;;1.27;1.27;;;;;;;;;;5086853;28;20226;-65
2023/08/05 07:46:16;;;;;;;2.47;1.40;;;;;;;;;;5087852;28;20203;-61
2023/08/05 07:48:46;;;;;;;3.10;1.75;;;;;;;;;;5083178;28;20207;-60
2023/08/05 07:51:14;;;;;;;2.72;1.38;;;;;;;;;;5087215;28;20198;-60
2023/08/05 07:53:41;;;;;;;5.22;1.40;;;;;;;;;;5082676;28;20202;-59
2023/08/05 07:56:11;;;;;;;3.25;1.90;;;;;;;;;;5087709;28;20230;-60
2023/08/05 07:58:40;;;;;;;3.08;1.65;;;;;;;;;;5086369;28;20241;-60
2023/08/05 08:01:07;;;;;;;3.58;1.58;;;;;;;;;;5087072;28;20470;-60
2023/08/05 08:03:36;;;;;;;1.48;1.23;;;;;;;;;;5079051;28;20228;-59
2023/08/05 08:06:04;;;;;;;1.20;1.10;;;;;;;;;;5085625;28;20643;-59
2023/08/05 08:08:31;;;;;;;1.48;1.40;;;;;;;;;;5080267;28;20209;-59
2023/08/05 08:10:58;;;;;;;3.10;1.67;;;;;;;;;;5077317;28;20229;-60
2023/08/05 08:13:25;;;;;;;2.10;1.40;;;;;;;;;;5084557;28;20735;-59
2023/08/05 08:15:52;;;;;;;1.60;1.52;;;;;;;;;;5081348;28;20214;-60
2023/08/05 08:18:19;;;;;;;2.47;1.15;;;;;;;;;;5082750;28;20576;-59
2023/08/05 08:20:51;;;;;;;1.25;1.25;;;;;;;;;;5082000;28;20216;-60
2023/08/05 08:23:18;;;;;;;1.23;1.23;;;;;;;;;;5087359;28;20214;-60
2023/08/05 08:25:45;;;;;;;2.45;1.42;;;;;;;;;;5080328;28;20846;-62
2023/08/05 08:28:12;;;;;;;1.65;1.48;;;;;;;;;;5087368;28;20229;-60
2023/08/05 08:30:39;;;;;;;2.22;1.02;;;;;;;;;;5087456;28;20715;-60
2023/08/05 08:33:06;;;;;;;1.60;1.50;;;;;;;;;;5090234;28;20229;-60
2023/08/05 08:35:34;;;;;;;1.58;1.48;;;;;;;;;;5087613;28;20230;-60
2023/08/05 08:38:02;;;;;;;1.23;1.13;;;;;;;;;;5090457;28;20206;-60
2023/08/05 08:40:31;;;;;;;1.00;1.00;;;;;;;;;;5089468;28;20228;-60
2023/08/05 08:42:59;;;;;;;1.17;1.13;;;;;;;;;;5089471;28;20230;-60
2023/08/05 08:45:29;;;;;;;1.27;1.27;;;;;;;;;;5090148;28;20214;-60
2023/08/05 08:47:56;;;;;;;2.20;1.13;;;;;;;;;;5090497;28;20668;-60
2023/08/05 08:50:24;;;;;;;1.67;1.58;;;;;;;;;;5089878;28;20210;-59
2023/08/05 08:52:52;;;;;;;1.20;1.20;;;;;;;;;;5089516;28;20214;-59
2023/08/05 08:55:20;;;;;;;2.40;1.15;;;;;;;;;;5081009;28;20199;-59
2023/08/05 08:57:47;;;;;;;1.30;1.00;;;;;;;;;;5077182;28;20218;-60
2023/08/05 09:00:15;;;;;;;1.35;1.02;;;;;;;;;;5079412;28;20676;-60
2023/08/05 09:02:42;;;;;;;1.30;1.23;;;;;;;;;;5085911;28;20225;-59
2023/08/05 09:05:09;;;;;;;1.40;1.40;;;;;;;;;;5081583;28;20206;-59
2023/08/05 09:07:37;;;;;;;1.10;1.10;;;;;;;;;;5089294;28;20242;-60
2023/08/05 09:10:05;;;;;;;1.30;1.23;;;;;;;;;;5090016;28;20214;-59
2023/08/05 09:12:33;;;;;;;0.93;0.93;;;;;;;;;;5088921;28;20202;-60
2023/08/05 09:15:01;;;;;;;0.98;0.90;;;;;;;;;;5089869;28;20202;-60
2023/08/05 09:17:37;;;;;;;1.00;1.00;;;;;;;;;;5072006;28;20283;-59
2023/08/05 09:20:05;;;;;;;0.70;0.70;;;;;;;;;;5077414;28;20210;-60
2023/08/05 09:22:32;;;;;;;1.45;0.80;;;;;;;;;;5084950;28;20243;-60
2023/08/05 09:25:01;;;;;;;1.83;0.90;;;;;;;;;;5072517;28;20206;-60
2023/08/05 09:27:28;;;;;;;0.80;0.80;;;;;;;;;;5089333;28;20203;-60
2023/08/05 09:30:12;;;;;;;0.70;0.70;;;;;;;;;;5089070;28;20210;-60
2023/08/05 09:32:40;;;;;;;0.73;0.73;;;;;;;;;;5089500;28;20238;-60
2023/08/05 09:35:10;;;;;;;1.27;1.08;;;;;;;;;;5089342;28;20214;-60
2023/08/05 09:37:38;;;;;;;0.88;0.88;;;;;;;;;;5089447;28;20283;-60
2023/08/05 09:40:15;;;;;;;0.77;0.77;;;;;;;;;;5088710;28;20206;-61
2023/08/05 09:42:43;;;;;;;0.82;0.82;;;;;;;;;;5089055;28;20262;-60
2023/08/05 09:45:12;;;;;;;0.80;0.80;;;;;;;;;;5089048;28;20206;-60
2023/08/05 09:47:42;;;;;;;1.65;0.80;;;;;;;;;;5089732;28;20756;-60
2023/08/05 09:50:10;;;;;;;0.80;0.80;;;;;;;;;;5087050;28;20237;-59
2023/08/05 09:52:39;;;;;;;2.47;1.00;;;;;;;;;;5089247;28;20210;-59
2023/08/05 09:55:08;;;;;;;0.90;0.90;;;;;;;;;;5080708;28;20272;-59
2023/08/05 09:57:36;;;;;;;1.05;0.88;;;;;;;;;;5067315;28;20237;-59
2023/08/05 10:00:08;;;;;;;0.75;0.75;;;;;;;;;;5069281;28;20301;-59
2023/08/05 10:02:36;;;;;;;1.08;1.08;;;;;;;;;;5087550;28;20652;-59
2023/08/05 10:05:04;;;;;;;2.78;1.10;;;;;;;;;;5084969;28;20202;-60
2023/08/05 10:07:31;;;;;;;1.35;0.75;;;;;;;;;;5074038;28;20202;-59
2023/08/05 10:10:00;;;;;;;0.90;0.90;;;;;;;;;;5088267;28;20206;-60
2023/08/05 10:12:30;;;;;;;0.90;0.90;;;;;;;;;;5084743;28;20206;-60
2023/08/05 10:14:57;;;;;;;0.82;0.82;;;;;;;;;;5089162;28;20227;-59
2023/08/05 10:17:25;;;;;;;1.45;0.80;;;;;;;;;;5077879;28;20226;-60
2023/08/05 10:19:54;;;;;;;0.85;0.85;;;;;;;;;;5088573;28;20214;-59
2023/08/05 10:22:22;;;;;;;1.00;1.00;;;;;;;;;;5088187;28;20232;-59
2023/08/05 10:24:53;;;;;;;1.55;0.70;;;;;;;;;;5089012;28;20241;-59
2023/08/05 10:27:34;;;;;;;0.85;0.80;;;;;;;;;;5088036;28;20255;-59
2023/08/05 10:30:06;;;;;;;0.93;0.93;;;;;;;;;;5088816;28;20737;-59
2023/08/05 10:32:35;;;;;;;4.88;0.90;;;;;;;;;;5088475;28;20249;-59
2023/08/05 10:35:21;;;;;;;0.70;0.70;;;;;;;;;;5088449;28;20210;-59
2023/08/05 10:37:50;;;;;;;1.15;1.15;;;;;;;;;;5086984;28;20248;-59
2023/08/05 10:40:32;;;;;;;1.83;1.08;;;;;;;;;;5087453;28;20206;-59
2023/08/05 10:42:59;;;;;;;1.00;1.00;;;;;;;;;;5085386;28;20583;-60
2023/08/05 10:45:26;;;;;;;1.00;1.00;;;;;;;;;;5088255;28;20207;-64
2023/08/05 10:47:54;;;;;;;2.38;0.90;;;;;;;;;;5083841;28;20857;-61
2023/08/05 10:50:21;;;;;;;1.80;0.93;;;;;;;;;;5086319;28;20298;-60
2023/08/05 10:52:51;;;;;;;0.77;0.77;;;;;;;;;;5082352;28;20213;-62
2023/08/05 10:55:26;;;;;;;0.90;0.90;;;;;;;;;;5083708;28;20209;-60
2023/08/05 10:57:54;;;;;;;1.30;0.90;;;;;;;;;;5087017;28;20237;-61
2023/08/05 11:00:24;;;;;;;0.80;0.80;;;;;;;;;;5069067;28;20203;-63
2023/08/05 11:03:10;;;;;;;0.88;0.85;;;;;;;;;;5078059;28;20629;-64
2023/08/05 11:05:38;;;;;;;1.65;0.80;;;;;;;;;;5067167;28;20221;-63
2023/08/05 11:08:05;;;;;;;0.80;0.80;;;;;;;;;;5077563;28;20202;-63
2023/08/05 11:10:35;;;;;;;0.77;0.77;;;;;;;;;;5086269;28;20684;-63
2023/08/05 11:13:02;;;;;;;0.70;0.70;;;;;;;;;;5066656;28;20210;-61
2023/08/05 11:15:29;;;;;;;1.75;0.70;;;;;;;;;;5076312;28;20751;-61
2023/08/05 11:17:56;;;;;;;0.70;0.70;;;;;;;;;;5073536;28;20230;-61
2023/08/05 11:20:31;;;;;;;1.20;0.80;;;;;;;;;;5072036;28;20221;-62
2023/08/05 11:22:58;;;;;;;1.65;0.95;;;;;;;;;;5081072;28;20229;-64
2023/08/05 11:25:25;;;;;;;0.80;0.80;;;;;;;;;;5081161;28;20214;-62
2023/08/05 11:27:54;;;;;;;1.75;0.98;;;;;;;;;;5087080;28;20202;-61
2023/08/05 11:30:21;;;;;;;1.45;0.80;;;;;;;;;;5067736;28;20210;-61
2023/08/05 11:32:52;;;;;;;0.90;0.90;;;;;;;;;;5082349;28;20237;-65
2023/08/05 11:35:19;;;;;;;0.80;0.80;;;;;;;;;;5087553;28;20202;-65
2023/08/05 11:37:46;;;;;;;1.10;0.95;;;;;;;;;;5086767;28;20636;-66
2023/08/05 11:40:13;;;;;;;0.88;0.88;;;;;;;;;;5082928;28;20206;-66
2023/08/05 11:42:40;;;;;;;1.08;1.08;;;;;;;;;;5088006;28;20664;-66
2023/08/05 11:45:11;;;;;;;1.10;1.10;;;;;;;;;;5067408;28;20215;-67
2023/08/05 11:47:38;;;;;;;1.30;1.30;;;;;;;;;;5074807;28;20213;-66
2023/08/05 11:50:06;;;;;;;1.08;1.00;;;;;;;;;;5085910;28;20599;-67
2023/08/05 11:52:33;;;;;;;0.95;0.95;;;;;;;;;;5087797;28;20314;-66
2023/08/05 11:55:05;;;;;;;1.60;1.30;;;;;;;;;;5081837;28;20217;-67
2023/08/05 11:57:32;;;;;;;1.73;0.80;;;;;;;;;;5085317;28;20225;-67
2023/08/05 12:00:04;;;;;;;1.05;1.05;;;;;;;;;;5086187;28;20213;-67
2023/08/05 12:02:34;;;;;;;1.10;1.10;;;;;;;;;;5083810;28;20665;-66
2023/08/05 12:05:01;;;;;;;0.93;0.93;;;;;;;;;;5085154;28;21046;-66
2023/08/05 12:07:28;;;;;;;9.18;3.30;;;;;;;;;;5079889;28;20202;-66
2023/08/05 12:10:05;;;;;;;3.85;2.60;;;;;;;;;;5081049;28;20202;-66
2023/08/05 12:12:32;;;;;;;1.63;1.52;;;;;;;;;;5090441;28;20210;-66
2023/08/05 12:15:08;;;;;;;5.65;4.15;;;;;;;;;;5090758;28;20210;-66
2023/08/05 12:17:37;;;;;;;17.25;4.97;;;;;;;;;;5089056;28;20229;-67
2023/08/05 12:20:06;;;;;;;2.55;2.33;;;;;;;;;;5077077;28;20210;-66
2023/08/05 12:22:33;;;;;;;3.22;2.45;;;;;;;;;;5090178;28;20617;-67
2023/08/05 12:25:00;;;;;;;1.00;1.00;;;;;;;;;;5090753;28;20206;-66
2023/08/05 12:27:30;;;;;;;1.10;1.10;;;;;;;;;;5086252;28;20203;-67
2023/08/05 12:29:57;;;;;;;1.10;1.10;;;;;;;;;;5080866;28;20206;-67
2023/08/05 12:32:24;;;;;;;1.15;1.15;;;;;;;;;;5090468;28;20241;-67
2023/08/05 12:34:52;;;;;;;1.25;1.25;;;;;;;;;;5089027;28;20214;-66
2023/08/05 12:37:19;;;;;;;1.20;1.20;;;;;;;;;;5084841;28;20223;-66
2023/08/05 12:39:46;;;;;;;1.67;1.50;;;;;;;;;;5087666;28;20202;-67
2023/08/05 12:42:13;;;;;;;1.23;1.23;;;;;;;;;;5088860;28;20202;-63
2023/08/05 12:44:41;;;;;;;1.27;1.20;;;;;;;;;;5089769;28;20234;-64
2023/08/05 12:47:08;;;;;;;1.42;1.27;;;;;;;;;;5076820;28;20321;-62
2023/08/05 12:49:36;;;;;;;1.25;1.20;;;;;;;;;;5089710;28;20618;-63
2023/08/05 12:52:05;;;;;;;2.47;1.40;;;;;;;;;;5078438;28;20225;-62
2023/08/05 12:54:32;;;;;;;1.73;1.58;;;;;;;;;;5077263;28;20306;-62
2023/08/05 12:56:59;;;;;;;1.27;1.20;;;;;;;;;;5088588;28;20236;-64
2023/08/05 12:59:26;;;;;;;1.50;1.40;;;;;;;;;;5085548;28;20200;-64
2023/08/05 13:01:53;;;;;;;1.13;1.10;;;;;;;;;;5079103;28;20207;-63
2023/08/05 13:04:20;;;;;;;1.27;1.27;;;;;;;;;;5089176;28;20209;-64
2023/08/05 13:06:47;;;;;;;1.00;1.00;;;;;;;;;;5089295;28;20210;-63
2023/08/05 13:09:17;;;;;;;1.20;1.20;;;;;;;;;;5089440;28;20233;-63
2023/08/05 13:11:45;;;;;;;1.17;1.15;;;;;;;;;;5089006;28;20202;-63
2023/08/05 13:14:12;;;;;;;1.15;1.15;;;;;;;;;;5088117;28;20224;-64
2023/08/05 13:16:39;;;;;;;1.10;1.10;;;;;;;;;;5080511;28;20210;-63
2023/08/05 13:19:06;;;;;;;2.10;1.17;;;;;;;;;;5077622;28;20252;-62
2023/08/05 13:21:36;;;;;;;0.90;0.90;;;;;;;;;;5085942;28;20288;-62
2023/08/05 13:24:03;;;;;;;0.95;0.95;;;;;;;;;;5067976;28;20207;-63
2023/08/05 13:26:32;;;;;;;0.95;0.93;;;;;;;;;;5068952;28;20207;-63
2023/08/05 13:28:59;;;;;;;1.48;1.20;;;;;;;;;;5086099;28;20198;-63
2023/08/05 13:31:26;;;;;;;1.10;1.10;;;;;;;;;;5089158;28;20712;-63
2023/08/05 13:33:53;;;;;;;0.95;0.95;;;;;;;;;;5083945;28;21649;-63
2023/08/05 13:36:21;;;;;;;0.90;0.90;;;;;;;;;;5088978;28;20583;-62
2023/08/05 13:38:49;;;;;;;1.00;0.98;;;;;;;;;;5086012;28;20226;-62
2023/08/05 13:41:17;;;;;;;0.95;0.95;;;;;;;;;;5089541;28;20278;-63
2023/08/05 13:43:46;;;;;;;1.23;1.20;;;;;;;;;;5088879;28;20574;-63
2023/08/05 13:46:13;;;;;;;1.13;1.13;;;;;;;;;;5076616;28;20206;-63
2023/08/05 13:48:40;;;;;;;1.10;1.10;;;;;;;;;;5088056;28;20233;-63
2023/08/05 13:51:08;;;;;;;1.70;1.27;;;;;;;;;;5087797;28;20244;-63
2023/08/05 13:53:36;;;;;;;1.85;0.90;;;;;;;;;;5088832;28;20669;-63
2023/08/05 13:56:03;;;;;;;1.00;1.00;;;;;;;;;;5087497;28;20237;-64
2023/08/05 13:58:32;;;;;;;0.90;0.90;;;;;;;;;;5085954;28;20591;-63
2023/08/05 14:01:02;;;;;;;0.98;0.98;;;;;;;;;;5087829;28;20206;-63
2023/08/05 14:03:29;;;;;;;1.35;1.05;;;;;;;;;;5088603;28;20765;-64
2023/08/05 14:05:57;;;;;;;1.00;1.00;;;;;;;;;;5087446;28;20691;-70
2023/08/05 14:08:26;;;;;;;1.10;0.90;;;;;;;;;;5086013;28;20226;-61
2023/08/05 14:10:53;;;;;;;1.10;1.10;;;;;;;;;;5085187;28;20527;-62
2023/08/05 14:13:21;;;;;;;0.82;0.82;;;;;;;;;;5077113;28;20210;-63
2023/08/05 14:15:48;;;;;;;1.13;1.10;;;;;;;;;;5083224;28;20215;-62
2023/08/05 14:18:17;;;;;;;0.98;0.98;;;;;;;;;;5082085;28;20226;-62
2023/08/05 14:20:44;;;;;;;0.98;0.98;;;;;;;;;;5086937;28;20210;-62
2023/08/05 14:23:11;;;;;;;0.90;0.90;;;;;;;;;;5088494;28;20241;-62
2023/08/05 14:25:38;;;;;;;1.13;1.13;;;;;;;;;;5088612;28;20210;-62
2023/08/05 14:28:05;;;;;;;1.20;1.10;;;;;;;;;;5086609;28;20226;-62
2023/08/05 14:30:32;;;;;;;1.73;0.90;;;;;;;;;;5086141;28;20202;-62
2023/08/05 14:33:00;;;;;;;1.00;1.00;;;;;;;;;;5068720;28;20242;-61
2023/08/05 14:35:31;;;;;;;1.33;1.05;;;;;;;;;;5071529;28;20207;-62
2023/08/05 14:37:59;;;;;;;0.77;0.77;;;;;;;;;;5070518;28;20317;-62
2023/08/05 14:40:26;;;;;;;0.75;0.75;;;;;;;;;;5067564;28;20230;-62
2023/08/05 14:42:53;;;;;;;0.98;0.85;;;;;;;;;;5067191;28;20234;-62
2023/08/05 14:45:20;;;;;;;1.10;1.08;;;;;;;;;;5071440;28;20645;-62
2023/08/05 14:47:47;;;;;;;0.93;0.93;;;;;;;;;;5087245;28;20203;-62